KOLVKJAN

Guest
Details From KOLV - Olive Branch
To KJAN - Jackson Evers Intl
Flight Number -
Tags Routegen Generated
Created
Modified
Stats Distance 160 nm / 296 km
Max Altitude 800 ft / 244 m
Waypoints 6
Social Downloads 0
Likes 0
Share VATSIM

Download

Looking for another format? Having issues loading an existing format? Contact us
Advertisement - Login to hide

Notes

Departing runway 17 KOLV. Arriving runway 15 KJAN.

Route

KOLV +34.90_-089.79 +34.00_-089.90 +32.45_-090.11 +32.40_-090.11 KJAN

ID Type Via Altitude Latitude Longitude Leg Dist Tot Dist Heading (true) Name
O KOLV APT - 800 ft / 244 m 34.97051˚ -89.78677˚ - 0 nm - -
+34.90_-089.79 LATLON - 800 ft / 244 m 34.89815˚ -89.78606˚ 4 nm 4 nm 180° / 180° -
+34.00_-089.90 LATLON - 800 ft / 244 m 34.00426˚ -89.90461˚ 54 nm 58 nm 186° / 186° -
+32.45_-090.11 LATLON - 800 ft / 244 m 32.45319˚ -90.11200˚ 93 nm 152 nm 186° / 186° -
+32.40_-090.11 LATLON - 800 ft / 244 m 32.39533˚ -90.10970˚ 3 nm 155 nm 178° / 178° -
O KJAN APT - 0 ft / 0 m 32.32819˚ -90.07771˚ 4 nm 159 nm 158° / 158° -

Altitude Profile

Advertisement - Login to hide

KOLV

Details ICAO KOLV (OLV)
Name OLIVE BRANCH
Region United States
Timezone America/Chicago (UTC-6.0)
Stats Elevation 402 ft / 123 m (AMSL)
Location 34.978752° -89.786850°
Runways 1
Magnetic Variation 1.483° W

METAR

KOLV 122150Z 34009KT 10SM SCT250 07/M07 A3013

Decode

TAF

Not found

Departure Runways

ID Width Length Bearing (true) Bearing (mag) Surface Threshold Offset Overrun Length
18 100 ft / 30 m 6,015 ft / 1,833 m 179.54° 181.02° Asphalt 0 ft / 0 m 0 ft / 0 m
36 100 ft / 30 m 6,015 ft / 1,833 m 359.54° 1.02° Asphalt 0 ft / 0 m 0 ft / 0 m

KJAN

Details ICAO KJAN (JAN)
Name JACKSON EVERS INTL
Region United States
Timezone America/Chicago (UTC-6.0)
Stats Elevation 346 ft / 105 m (AMSL)
Location 32.311177° -90.075892°
Runways 2
Magnetic Variation 1.047° W

METAR

KJAN 122154Z 31009KT 10SM CLR 13/M03 A3014 RMK AO2 SLP204 T01331033

Decode

TAF

KJAN 121739Z 1218/1318 34011G20KT P6SM SKC FM122300 32006KT P6SM SKC FM131500 20006KT P6SM SKC

Decode

Destination Runways

ID Width Length Bearing (true) Bearing (mag) Surface Threshold Offset Overrun Length
16L 150 ft / 46 m 8,520 ft / 2,597 m 158.08° 159.13° Asphalt 0 ft / 0 m 0 ft / 0 m
16R 150 ft / 46 m 8,520 ft / 2,597 m 158.08° 159.13° Asphalt 0 ft / 0 m 0 ft / 0 m
34L 150 ft / 46 m 8,520 ft / 2,597 m 338.09° 339.14° Asphalt 0 ft / 0 m 0 ft / 0 m
34R 150 ft / 46 m 8,520 ft / 2,597 m 338.08° 339.13° Asphalt 0 ft / 0 m 0 ft / 0 m

Approach Navaids

Runway Type Ident Frequency Range Bearing (true) Bearing (mag) Slope Elevation
16L Localiser IJAN 110.50 MHz 18 nm / 33 km 158.08° 159.13° - 346 ft / 105 m (AMSL)
16L Glidescope IJAN 110.50 MHz 10 nm / 19 km 158.08° 159.13° 3.00° 302 ft / 92 m (AMSL)
34L Localiser IFRL 109.30 MHz 18 nm / 33 km 338.07° 339.12° - 346 ft / 105 m (AMSL)
34L Glidescope IFRL 109.30 MHz 10 nm / 19 km 338.08° 339.13° 3.00° 327 ft / 100 m (AMSL)

Popular Alternatives